KBBD/BBD METAR and TAF weather

Enter ICAO airport designator
Station Type Date Time Source
KBBD METAR 2019/10/16 19:55 UTC NOAA

KBBD 161955Z AUTO 04012G17KT 10SM CLR 19/M01 A3019 RMK AO2


Station Type Date Time Source
KBBD Decoded METAR 2019/10/16 19:55 UTC NOAA

Brady, Curtis Field Airport, TX, United States (KBBD) 31-10-45N 099-19-26W
Oct 16, 2019 - 03:55 PM EDT / 2019.10.16 1955 UTC
Wind: from the NE (040 degrees) at 14 MPH (12 KT) gusting to 20 MPH (17 KT):0
Visibility: 10 mile(s):0
Sky conditions: clear
Temperature: 66 F (19 C)
Dew Point: 30 F (-1 C)
Relative Humidity: 25%
Pressure (altimeter): 30.19 in. Hg (1022 hPa)
ob: KBBD 161955Z AUTO 04012G17KT 10SM CLR 19/M01 A3019 RMK AO2
cycle: 20

Station Type Date Time Source
KBBD TAF 2019/10/16 18:22 UTC NOAA

TAF KBBD 161720Z 1618/1718 03012G21KT P6SM SCT250
FM170000 VRB05KT P6SM SCT120

Example: see airport list